sensor_id;sensor_type;location;lat;lon;timestamp;temperature;humidity
32536;DHT22;18974;50.838;4.636;2024-01-30T00:01:15;10.90;99.90
32536;DHT22;18974;50.838;4.636;2024-01-30T00:03:41;10.90;99.90
32536;DHT22;18974;50.838;4.636;2024-01-30T00:06:08;10.90;99.90
32536;DHT22;18974;50.838;4.636;2024-01-30T00:08:34;10.80;99.90
32536;DHT22;18974;50.838;4.636;2024-01-30T00:11:00;10.90;99.90
32536;DHT22;18974;50.838;4.636;2024-01-30T00:13:26;10.80;99.90
32536;DHT22;18974;50.838;4.636;2024-01-30T00:15:52;10.80;99.90
32536;DHT22;18974;50.838;4.636;2024-01-30T00:18:18;10.90;99.90
32536;DHT22;18974;50.838;4.636;2024-01-30T00:20:44;10.90;99.90
32536;DHT22;18974;50.838;4.636;2024-01-30T00:23:10;11.00;99.90
32536;DHT22;18974;50.838;4.636;2024-01-30T00:25:36;11.00;99.90
32536;DHT22;18974;50.838;4.636;2024-01-30T00:28:01;11.00;99.90
32536;DHT22;18974;50.838;4.636;2024-01-30T00:30:27;11.10;99.90
32536;DHT22;18974;50.838;4.636;2024-01-30T00:32:54;11.10;99.90
32536;DHT22;18974;50.838;4.636;2024-01-30T00:35:19;11.00;99.90
32536;DHT22;18974;50.838;4.636;2024-01-30T00:37:47;11.00;99.90
32536;DHT22;18974;50.838;4.636;2024-01-30T00:40:13;11.00;99.90
32536;DHT22;18974;50.838;4.636;2024-01-30T00:42:44;11.00;99.90
32536;DHT22;18974;50.838;4.636;2024-01-30T00:45:16;11.10;99.90
32536;DHT22;18974;50.838;4.636;2024-01-30T00:47:42;11.10;99.90
32536;DHT22;18974;50.838;4.636;2024-01-30T00:50:08;11.20;99.90
32536;DHT22;18974;50.838;4.636;2024-01-30T00:52:34;11.20;99.90
32536;DHT22;18974;50.838;4.636;2024-01-30T00:55:01;11.20;99.90
32536;DHT22;18974;50.838;4.636;2024-01-30T00:57:26;11.10;99.90
32536;DHT22;18974;50.838;4.636;2024-01-30T00:59:52;11.20;99.90
32536;DHT22;18974;50.838;4.636;2024-01-30T01:02:18;11.30;99.90
32536;DHT22;18974;50.838;4.636;2024-01-30T01:04:44;11.20;99.90
32536;DHT22;18974;50.838;4.636;2024-01-30T01:07:10;11.20;99.90
32536;DHT22;18974;50.838;4.636;2024-01-30T01:09:36;11.30;99.90
32536;DHT22;18974;50.838;4.636;2024-01-30T01:12:03;11.30;99.90
32536;DHT22;18974;50.838;4.636;2024-01-30T01:14:29;11.30;99.90
32536;DHT22;18974;50.838;4.636;2024-01-30T01:16:55;11.40;99.90
32536;DHT22;18974;50.838;4.636;2024-01-30T01:19:21;11.40;99.90
32536;DHT22;18974;50.838;4.636;2024-01-30T01:21:47;11.40;99.90
32536;DHT22;18974;50.838;4.636;2024-01-30T01:24:13;11.40;99.90
32536;DHT22;18974;50.838;4.636;2024-01-30T01:26:39;11.40;99.90
32536;DHT22;18974;50.838;4.636;2024-01-30T01:29:06;11.40;99.90
32536;DHT22;18974;50.838;4.636;2024-01-30T01:31:37;11.50;99.90
32536;DHT22;18974;50.838;4.636;2024-01-30T01:34:10;11.50;99.90
32536;DHT22;18974;50.838;4.636;2024-01-30T01:36:36;11.50;99.90
32536;DHT22;18974;50.838;4.636;2024-01-30T01:39:01;11.40;99.90
32536;DHT22;18974;50.838;4.636;2024-01-30T01:41:31;11.50;99.90
32536;DHT22;18974;50.838;4.636;2024-01-30T01:43:58;11.50;99.90
32536;DHT22;18974;50.838;4.636;2024-01-30T01:46:26;11.50;99.90
32536;DHT22;18974;50.838;4.636;2024-01-30T01:48:52;11.50;99.90
32536;DHT22;18974;50.838;4.636;2024-01-30T01:51:17;11.60;99.90
32536;DHT22;18974;50.838;4.636;2024-01-30T01:53:44;11.50;99.90
32536;DHT22;18974;50.838;4.636;2024-01-30T01:56:10;11.50;99.90
32536;DHT22;18974;50.838;4.636;2024-01-30T01:58:36;11.50;99.90
32536;DHT22;18974;50.838;4.636;2024-01-30T02:01:04;11.50;99.90
32536;DHT22;18974;50.838;4.636;2024-01-30T02:03:30;11.50;99.90
32536;DHT22;18974;50.838;4.636;2024-01-30T02:05:56;11.50;99.90
32536;DHT22;18974;50.838;4.636;2024-01-30T02:08:23;11.50;99.90
32536;DHT22;18974;50.838;4.636;2024-01-30T02:10:49;11.50;99.90
32536;DHT22;18974;50.838;4.636;2024-01-30T02:13:15;11.50;99.90
32536;DHT22;18974;50.838;4.636;2024-01-30T02:15:40;11.40;99.90
32536;DHT22;18974;50.838;4.636;2024-01-30T02:18:06;11.30;99.90
32536;DHT22;18974;50.838;4.636;2024-01-30T02:20:35;11.30;99.90
32536;DHT22;18974;50.838;4.636;2024-01-30T02:23:01;11.20;99.90
32536;DHT22;18974;50.838;4.636;2024-01-30T02:25:37;11.30;99.90
32536;DHT22;18974;50.838;4.636;2024-01-30T02:28:03;11.30;99.90
32536;DHT22;18974;50.838;4.636;2024-01-30T02:30:28;11.20;99.90
32536;DHT22;18974;50.838;4.636;2024-01-30T02:32:54;11.30;99.90
32536;DHT22;18974;50.838;4.636;2024-01-30T02:35:20;11.20;99.90
32536;DHT22;18974;50.838;4.636;2024-01-30T02:37:45;11.20;99.90
32536;DHT22;18974;50.838;4.636;2024-01-30T02:40:11;11.30;99.90
32536;DHT22;18974;50.838;4.636;2024-01-30T02:42:37;11.20;99.90
32536;DHT22;18974;50.838;4.636;2024-01-30T02:45:02;11.20;99.90
32536;DHT22;18974;50.838;4.636;2024-01-30T02:47:28;11.20;99.90
32536;DHT22;18974;50.838;4.636;2024-01-30T02:49:54;11.30;99.90
32536;DHT22;18974;50.838;4.636;2024-01-30T02:52:19;11.20;99.90
32536;DHT22;18974;50.838;4.636;2024-01-30T02:54:45;11.30;99.90
32536;DHT22;18974;50.838;4.636;2024-01-30T02:57:11;11.20;99.90
32536;DHT22;18974;50.838;4.636;2024-01-30T02:59:36;11.20;99.90
32536;DHT22;18974;50.838;4.636;2024-01-30T03:02:02;11.30;99.90
32536;DHT22;18974;50.838;4.636;2024-01-30T03:04:28;11.30;99.90
32536;DHT22;18974;50.838;4.636;2024-01-30T03:06:55;11.30;99.90
32536;DHT22;18974;50.838;4.636;2024-01-30T03:09:21;11.30;99.90
32536;DHT22;18974;50.838;4.636;2024-01-30T03:11:46;11.20;99.90
32536;DHT22;18974;50.838;4.636;2024-01-30T03:14:12;11.30;99.90
32536;DHT22;18974;50.838;4.636;2024-01-30T03:16:38;11.20;99.90
32536;DHT22;18974;50.838;4.636;2024-01-30T03:19:05;11.40;99.90
32536;DHT22;18974;50.838;4.636;2024-01-30T03:21:33;11.40;99.90
32536;DHT22;18974;50.838;4.636;2024-01-30T03:23:58;11.50;99.90
32536;DHT22;18974;50.838;4.636;2024-01-30T03:26:24;11.40;99.90
32536;DHT22;18974;50.838;4.636;2024-01-30T03:28:50;11.40;99.90
32536;DHT22;18974;50.838;4.636;2024-01-30T03:31:16;11.50;99.90
32536;DHT22;18974;50.838;4.636;2024-01-30T03:33:41;11.40;99.90
32536;DHT22;18974;50.838;4.636;2024-01-30T03:36:08;11.50;99.90
32536;DHT22;18974;50.838;4.636;2024-01-30T03:38:34;11.50;99.90
32536;DHT22;18974;50.838;4.636;2024-01-30T03:41:00;11.60;99.90
32536;DHT22;18974;50.838;4.636;2024-01-30T03:43:26;11.50;99.90
32536;DHT22;18974;50.838;4.636;2024-01-30T03:45:52;11.50;99.90
32536;DHT22;18974;50.838;4.636;2024-01-30T03:48:18;11.50;99.90
32536;DHT22;18974;50.838;4.636;2024-01-30T03:50:43;11.50;99.90
32536;DHT22;18974;50.838;4.636;2024-01-30T03:53:09;11.50;99.90
32536;DHT22;18974;50.838;4.636;2024-01-30T03:55:35;11.40;99.90
32536;DHT22;18974;50.838;4.636;2024-01-30T03:58:01;11.50;99.90
32536;DHT22;18974;50.838;4.636;2024-01-30T04:00:26;11.50;99.90
32536;DHT22;18974;50.838;4.636;2024-01-30T04:02:52;11.60;99.90
32536;DHT22;18974;50.838;4.636;2024-01-30T04:05:18;11.70;99.90
32536;DHT22;18974;50.838;4.636;2024-01-30T04:07:43;11.70;99.90
32536;DHT22;18974;50.838;4.636;2024-01-30T04:10:12;11.70;99.90
32536;DHT22;18974;50.838;4.636;2024-01-30T04:12:38;11.70;99.90
32536;DHT22;18974;50.838;4.636;2024-01-30T04:15:03;11.60;99.90
32536;DHT22;18974;50.838;4.636;2024-01-30T04:17:29;11.60;99.90
32536;DHT22;18974;50.838;4.636;2024-01-30T04:19:55;11.60;99.90
32536;DHT22;18974;50.838;4.636;2024-01-30T04:22:21;11.60;99.90
32536;DHT22;18974;50.838;4.636;2024-01-30T04:24:47;11.60;99.90
32536;DHT22;18974;50.838;4.636;2024-01-30T04:27:12;11.60;99.90
32536;DHT22;18974;50.838;4.636;2024-01-30T04:29:38;11.50;99.90
32536;DHT22;18974;50.838;4.636;2024-01-30T04:32:04;11.60;99.90
32536;DHT22;18974;50.838;4.636;2024-01-30T04:34:30;11.50;99.90
32536;DHT22;18974;50.838;4.636;2024-01-30T04:36:55;11.50;99.90
32536;DHT22;18974;50.838;4.636;2024-01-30T04:39:21;11.40;99.90
32536;DHT22;18974;50.838;4.636;2024-01-30T04:41:47;11.40;99.90
32536;DHT22;18974;50.838;4.636;2024-01-30T04:44:13;11.50;99.90
32536;DHT22;18974;50.838;4.636;2024-01-30T04:46:39;11.50;99.90
32536;DHT22;18974;50.838;4.636;2024-01-30T04:49:06;11.60;99.90
32536;DHT22;18974;50.838;4.636;2024-01-30T04:51:33;11.60;99.90
32536;DHT22;18974;50.838;4.636;2024-01-30T04:53:59;11.50;99.90
32536;DHT22;18974;50.838;4.636;2024-01-30T04:56:24;11.60;99.90
32536;DHT22;18974;50.838;4.636;2024-01-30T04:58:50;11.50;99.90
32536;DHT22;18974;50.838;4.636;2024-01-30T05:01:16;11.60;99.90
32536;DHT22;18974;50.838;4.636;2024-01-30T05:03:42;11.60;99.90
32536;DHT22;18974;50.838;4.636;2024-01-30T05:06:08;11.50;99.90
32536;DHT22;18974;50.838;4.636;2024-01-30T05:08:34;11.50;99.90
32536;DHT22;18974;50.838;4.636;2024-01-30T05:11:02;11.50;99.90
32536;DHT22;18974;50.838;4.636;2024-01-30T05:13:32;11.50;99.90
32536;DHT22;18974;50.838;4.636;2024-01-30T05:15:59;11.50;99.90
32536;DHT22;18974;50.838;4.636;2024-01-30T05:18:27;11.50;99.90
32536;DHT22;18974;50.838;4.636;2024-01-30T05:20:52;11.50;99.90
32536;DHT22;18974;50.838;4.636;2024-01-30T05:23:18;11.40;99.90
32536;DHT22;18974;50.838;4.636;2024-01-30T05:25:43;11.40;99.90
32536;DHT22;18974;50.838;4.636;2024-01-30T05:28:09;11.40;99.90
32536;DHT22;18974;50.838;4.636;2024-01-30T05:30:35;11.30;99.90
32536;DHT22;18974;50.838;4.636;2024-01-30T05:33:01;11.40;99.90
32536;DHT22;18974;50.838;4.636;2024-01-30T05:35:26;11.50;99.90
32536;DHT22;18974;50.838;4.636;2024-01-30T05:37:52;11.40;99.90
32536;DHT22;18974;50.838;4.636;2024-01-30T05:40:18;11.50;99.90
32536;DHT22;18974;50.838;4.636;2024-01-30T05:42:43;11.40;99.90
32536;DHT22;18974;50.838;4.636;2024-01-30T05:45:09;11.50;99.90
32536;DHT22;18974;50.838;4.636;2024-01-30T05:47:35;11.50;99.90
32536;DHT22;18974;50.838;4.636;2024-01-30T05:50:00;11.50;99.90
32536;DHT22;18974;50.838;4.636;2024-01-30T05:52:26;11.60;99.90
32536;DHT22;18974;50.838;4.636;2024-01-30T05:54:52;11.60;99.90
32536;DHT22;18974;50.838;4.636;2024-01-30T05:57:17;11.60;99.90
32536;DHT22;18974;50.838;4.636;2024-01-30T05:59:44;11.60;99.90
32536;DHT22;18974;50.838;4.636;2024-01-30T06:02:10;11.60;99.90
32536;DHT22;18974;50.838;4.636;2024-01-30T06:04:36;11.60;99.90
32536;DHT22;18974;50.838;4.636;2024-01-30T06:07:02;11.60;99.90
32536;DHT22;18974;50.838;4.636;2024-01-30T06:09:28;11.60;99.90
32536;DHT22;18974;50.838;4.636;2024-01-30T06:11:56;11.50;99.90
32536;DHT22;18974;50.838;4.636;2024-01-30T06:14:22;11.50;99.90
32536;DHT22;18974;50.838;4.636;2024-01-30T06:16:48;11.50;99.90
32536;DHT22;18974;50.838;4.636;2024-01-30T06:19:14;11.60;99.90
32536;DHT22;18974;50.838;4.636;2024-01-30T06:21:40;11.60;99.90
32536;DHT22;18974;50.838;4.636;2024-01-30T06:24:05;11.50;99.90
32536;DHT22;18974;50.838;4.636;2024-01-30T06:26:31;11.50;99.90
32536;DHT22;18974;50.838;4.636;2024-01-30T06:28:56;11.60;99.90
32536;DHT22;18974;50.838;4.636;2024-01-30T06:31:22;11.60;99.90
32536;DHT22;18974;50.838;4.636;2024-01-30T06:33:48;11.60;99.90
32536;DHT22;18974;50.838;4.636;2024-01-30T06:36:14;11.60;99.90
32536;DHT22;18974;50.838;4.636;2024-01-30T06:38:40;11.50;99.90
32536;DHT22;18974;50.838;4.636;2024-01-30T06:41:06;11.60;99.90
32536;DHT22;18974;50.838;4.636;2024-01-30T06:43:32;11.60;99.90
32536;DHT22;18974;50.838;4.636;2024-01-30T06:45:57;11.60;99.90
32536;DHT22;18974;50.838;4.636;2024-01-30T06:48:23;11.60;99.90
32536;DHT22;18974;50.838;4.636;2024-01-30T06:50:49;11.60;99.90
32536;DHT22;18974;50.838;4.636;2024-01-30T06:53:16;11.60;99.90
32536;DHT22;18974;50.838;4.636;2024-01-30T06:55:41;11.60;99.90
32536;DHT22;18974;50.838;4.636;2024-01-30T06:58:07;11.70;99.90
32536;DHT22;18974;50.838;4.636;2024-01-30T07:00:33;11.60;99.90
32536;DHT22;18974;50.838;4.636;2024-01-30T07:02:58;11.70;99.90
32536;DHT22;18974;50.838;4.636;2024-01-30T07:05:24;11.70;99.90
32536;DHT22;18974;50.838;4.636;2024-01-30T07:07:49;11.70;99.90
32536;DHT22;18974;50.838;4.636;2024-01-30T07:10:15;11.80;99.90
32536;DHT22;18974;50.838;4.636;2024-01-30T07:12:41;11.80;99.90
32536;DHT22;18974;50.838;4.636;2024-01-30T07:15:07;11.80;99.90
32536;DHT22;18974;50.838;4.636;2024-01-30T07:17:35;11.70;99.90
32536;DHT22;18974;50.838;4.636;2024-01-30T07:20:01;11.80;99.90
32536;DHT22;18974;50.838;4.636;2024-01-30T07:22:30;11.90;99.90
32536;DHT22;18974;50.838;4.636;2024-01-30T07:24:56;11.80;99.90
32536;DHT22;18974;50.838;4.636;2024-01-30T07:27:22;11.80;99.90
32536;DHT22;18974;50.838;4.636;2024-01-30T07:29:48;11.70;99.90
32536;DHT22;18974;50.838;4.636;2024-01-30T07:32:14;11.60;99.90
32536;DHT22;18974;50.838;4.636;2024-01-30T07:34:40;11.50;99.90
32536;DHT22;18974;50.838;4.636;2024-01-30T07:37:05;11.60;99.90
32536;DHT22;18974;50.838;4.636;2024-01-30T07:39:34;11.60;99.90
32536;DHT22;18974;50.838;4.636;2024-01-30T07:42:00;11.60;99.90
32536;DHT22;18974;50.838;4.636;2024-01-30T07:44:26;11.60;99.90
32536;DHT22;18974;50.838;4.636;2024-01-30T07:46:51;11.60;99.90
32536;DHT22;18974;50.838;4.636;2024-01-30T07:49:17;11.70;99.90
32536;DHT22;18974;50.838;4.636;2024-01-30T07:51:43;11.80;99.90
32536;DHT22;18974;50.838;4.636;2024-01-30T07:54:10;11.80;99.90
32536;DHT22;18974;50.838;4.636;2024-01-30T07:56:36;11.80;99.90
32536;DHT22;18974;50.838;4.636;2024-01-30T07:59:01;12.00;99.90
32536;DHT22;18974;50.838;4.636;2024-01-30T08:01:27;12.00;99.90
32536;DHT22;18974;50.838;4.636;2024-01-30T08:03:53;12.10;99.90
32536;DHT22;18974;50.838;4.636;2024-01-30T08:06:18;12.00;99.90
32536;DHT22;18974;50.838;4.636;2024-01-30T08:08:45;12.10;99.90
32536;DHT22;18974;50.838;4.636;2024-01-30T08:11:11;12.20;99.90
32536;DHT22;18974;50.838;4.636;2024-01-30T08:13:37;12.20;99.90
32536;DHT22;18974;50.838;4.636;2024-01-30T08:16:03;12.20;99.90
32536;DHT22;18974;50.838;4.636;2024-01-30T08:18:29;12.30;99.90
32536;DHT22;18974;50.838;4.636;2024-01-30T08:20:55;12.30;99.90
32536;DHT22;18974;50.838;4.636;2024-01-30T08:23:21;12.20;99.90
32536;DHT22;18974;50.838;4.636;2024-01-30T08:25:46;12.10;99.90
32536;DHT22;18974;50.838;4.636;2024-01-30T08:28:12;12.10;99.90
32536;DHT22;18974;50.838;4.636;2024-01-30T08:30:37;12.20;99.90
32536;DHT22;18974;50.838;4.636;2024-01-30T08:33:05;12.20;99.90
32536;DHT22;18974;50.838;4.636;2024-01-30T08:35:30;12.20;99.90
32536;DHT22;18974;50.838;4.636;2024-01-30T08:37:59;12.30;99.90
32536;DHT22;18974;50.838;4.636;2024-01-30T08:40:24;12.30;99.90
32536;DHT22;18974;50.838;4.636;2024-01-30T08:42:50;12.40;99.90
32536;DHT22;18974;50.838;4.636;2024-01-30T08:45:16;12.30;99.90
32536;DHT22;18974;50.838;4.636;2024-01-30T08:47:42;12.30;99.90
32536;DHT22;18974;50.838;4.636;2024-01-30T08:50:08;12.30;99.90
32536;DHT22;18974;50.838;4.636;2024-01-30T08:52:34;12.30;99.90
32536;DHT22;18974;50.838;4.636;2024-01-30T08:55:00;12.30;99.90
32536;DHT22;18974;50.838;4.636;2024-01-30T08:57:26;12.40;99.90
32536;DHT22;18974;50.838;4.636;2024-01-30T08:59:54;12.40;99.90
32536;DHT22;18974;50.838;4.636;2024-01-30T09:02:20;12.40;99.90
32536;DHT22;18974;50.838;4.636;2024-01-30T09:04:46;12.50;99.90
32536;DHT22;18974;50.838;4.636;2024-01-30T09:07:12;12.60;99.90
32536;DHT22;18974;50.838;4.636;2024-01-30T09:09:39;12.80;99.90
32536;DHT22;18974;50.838;4.636;2024-01-30T09:12:08;12.90;99.90
32536;DHT22;18974;50.838;4.636;2024-01-30T09:14:37;13.00;99.90
32536;DHT22;18974;50.838;4.636;2024-01-30T09:17:03;13.00;99.90
32536;DHT22;18974;50.838;4.636;2024-01-30T09:19:30;13.00;99.90
32536;DHT22;18974;50.838;4.636;2024-01-30T09:21:55;13.10;99.90
32536;DHT22;18974;50.838;4.636;2024-01-30T09:24:21;13.00;99.90
32536;DHT22;18974;50.838;4.636;2024-01-30T09:26:47;13.00;99.90
32536;DHT22;18974;50.838;4.636;2024-01-30T09:29:12;13.10;99.90
32536;DHT22;18974;50.838;4.636;2024-01-30T09:31:38;13.10;99.90
32536;DHT22;18974;50.838;4.636;2024-01-30T09:34:04;13.10;99.90
32536;DHT22;18974;50.838;4.636;2024-01-30T09:36:29;13.00;99.90
32536;DHT22;18974;50.838;4.636;2024-01-30T09:38:55;13.00;99.90
32536;DHT22;18974;50.838;4.636;2024-01-30T09:41:23;13.00;99.90
32536;DHT22;18974;50.838;4.636;2024-01-30T09:43:51;12.90;99.90
32536;DHT22;18974;50.838;4.636;2024-01-30T09:46:17;12.90;99.90
32536;DHT22;18974;50.838;4.636;2024-01-30T09:48:46;13.00;99.90
32536;DHT22;18974;50.838;4.636;2024-01-30T09:51:14;13.00;99.90
32536;DHT22;18974;50.838;4.636;2024-01-30T09:53:42;13.00;99.90
32536;DHT22;18974;50.838;4.636;2024-01-30T09:56:09;13.00;99.90
32536;DHT22;18974;50.838;4.636;2024-01-30T09:58:36;13.00;99.90
32536;DHT22;18974;50.838;4.636;2024-01-30T10:01:02;12.90;99.90
32536;DHT22;18974;50.838;4.636;2024-01-30T10:03:28;12.90;99.90
32536;DHT22;18974;50.838;4.636;2024-01-30T10:05:55;12.90;99.90
32536;DHT22;18974;50.838;4.636;2024-01-30T10:08:21;12.90;99.90
32536;DHT22;18974;50.838;4.636;2024-01-30T10:10:48;12.90;99.90
32536;DHT22;18974;50.838;4.636;2024-01-30T10:13:15;12.90;99.90
32536;DHT22;18974;50.838;4.636;2024-01-30T10:15:41;12.90;99.90
32536;DHT22;18974;50.838;4.636;2024-01-30T10:18:08;12.90;99.90
32536;DHT22;18974;50.838;4.636;2024-01-30T10:20:35;12.90;99.90
32536;DHT22;18974;50.838;4.636;2024-01-30T10:23:01;12.90;99.90
32536;DHT22;18974;50.838;4.636;2024-01-30T10:25:27;13.00;99.90
32536;DHT22;18974;50.838;4.636;2024-01-30T10:27:54;12.90;99.90
32536;DHT22;18974;50.838;4.636;2024-01-30T10:30:23;12.90;99.90
32536;DHT22;18974;50.838;4.636;2024-01-30T10:32:49;13.00;99.90
32536;DHT22;18974;50.838;4.636;2024-01-30T10:35:15;13.10;99.90
32536;DHT22;18974;50.838;4.636;2024-01-30T10:37:47;13.20;99.90
32536;DHT22;18974;50.838;4.636;2024-01-30T10:40:13;13.20;99.90
32536;DHT22;18974;50.838;4.636;2024-01-30T10:42:43;13.30;99.90
32536;DHT22;18974;50.838;4.636;2024-01-30T10:45:11;13.30;99.90
32536;DHT22;18974;50.838;4.636;2024-01-30T10:47:50;13.40;99.90
32536;DHT22;18974;50.838;4.636;2024-01-30T10:50:16;13.40;99.90
32536;DHT22;18974;50.838;4.636;2024-01-30T10:52:42;13.30;99.90
32536;DHT22;18974;50.838;4.636;2024-01-30T10:55:10;13.40;99.90
32536;DHT22;18974;50.838;4.636;2024-01-30T10:57:36;13.30;99.90
32536;DHT22;18974;50.838;4.636;2024-01-30T11:00:08;13.20;99.90
32536;DHT22;18974;50.838;4.636;2024-01-30T11:02:43;13.00;99.90
32536;DHT22;18974;50.838;4.636;2024-01-30T11:05:09;12.70;99.90
32536;DHT22;18974;50.838;4.636;2024-01-30T11:07:35;12.50;99.90
32536;DHT22;18974;50.838;4.636;2024-01-30T11:10:03;12.40;99.90
32536;DHT22;18974;50.838;4.636;2024-01-30T11:12:37;12.40;99.90
32536;DHT22;18974;50.838;4.636;2024-01-30T11:20:30;12.40;99.90
32536;DHT22;18974;50.838;4.636;2024-01-30T11:23:01;12.60;99.90
32536;DHT22;18974;50.838;4.636;2024-01-30T11:25:32;12.50;99.90
32536;DHT22;18974;50.838;4.636;2024-01-30T11:27:57;12.60;99.90
32536;DHT22;18974;50.838;4.636;2024-01-30T11:33:12;12.40;99.90
32536;DHT22;18974;50.838;4.636;2024-01-30T11:35:40;12.40;99.90
32536;DHT22;18974;50.838;4.636;2024-01-30T11:38:08;12.30;99.90
32536;DHT22;18974;50.838;4.636;2024-01-30T11:40:36;12.30;99.90
32536;DHT22;18974;50.838;4.636;2024-01-30T11:43:04;12.30;99.90
32536;DHT22;18974;50.838;4.636;2024-01-30T11:45:31;12.20;99.90
32536;DHT22;18974;50.838;4.636;2024-01-30T11:47:57;12.20;99.90
32536;DHT22;18974;50.838;4.636;2024-01-30T11:50:24;12.10;99.90
32536;DHT22;18974;50.838;4.636;2024-01-30T11:52:50;12.00;99.90
32536;DHT22;18974;50.838;4.636;2024-01-30T11:55:16;12.10;99.90
32536;DHT22;18974;50.838;4.636;2024-01-30T11:57:42;12.30;99.90
32536;DHT22;18974;50.838;4.636;2024-01-30T12:00:17;12.30;99.90
32536;DHT22;18974;50.838;4.636;2024-01-30T12:02:44;12.20;99.90
32536;DHT22;18974;50.838;4.636;2024-01-30T12:05:09;12.40;99.90
32536;DHT22;18974;50.838;4.636;2024-01-30T12:07:36;12.50;99.90
32536;DHT22;18974;50.838;4.636;2024-01-30T12:10:02;12.60;99.90
32536;DHT22;18974;50.838;4.636;2024-01-30T12:12:29;12.50;99.90
32536;DHT22;18974;50.838;4.636;2024-01-30T12:14:55;12.50;99.90
32536;DHT22;18974;50.838;4.636;2024-01-30T12:17:32;12.60;99.90
32536;DHT22;18974;50.838;4.636;2024-01-30T12:20:19;12.50;99.90
32536;DHT22;18974;50.838;4.636;2024-01-30T12:22:47;12.50;99.90
32536;DHT22;18974;50.838;4.636;2024-01-30T12:25:15;12.50;99.90
32536;DHT22;18974;50.838;4.636;2024-01-30T12:27:45;12.40;99.90
32536;DHT22;18974;50.838;4.636;2024-01-30T12:30:13;12.10;99.90
32536;DHT22;18974;50.838;4.636;2024-01-30T12:32:41;12.10;99.90
32536;DHT22;18974;50.838;4.636;2024-01-30T12:35:12;12.10;99.90
32536;DHT22;18974;50.838;4.636;2024-01-30T12:37:38;12.30;99.90
32536;DHT22;18974;50.838;4.636;2024-01-30T12:40:05;12.30;99.90
32536;DHT22;18974;50.838;4.636;2024-01-30T12:42:31;12.30;99.90
32536;DHT22;18974;50.838;4.636;2024-01-30T12:44:58;12.20;99.90
32536;DHT22;18974;50.838;4.636;2024-01-30T12:47:26;12.40;99.90
32536;DHT22;18974;50.838;4.636;2024-01-30T12:49:52;12.30;99.90
32536;DHT22;18974;50.838;4.636;2024-01-30T12:52:21;12.30;99.90
32536;DHT22;18974;50.838;4.636;2024-01-30T12:54:48;12.30;99.90
32536;DHT22;18974;50.838;4.636;2024-01-30T12:57:14;12.30;99.90
32536;DHT22;18974;50.838;4.636;2024-01-30T12:59:39;12.10;99.90
32536;DHT22;18974;50.838;4.636;2024-01-30T13:02:05;12.10;99.90
32536;DHT22;18974;50.838;4.636;2024-01-30T13:04:32;12.20;99.90
32536;DHT22;18974;50.838;4.636;2024-01-30T13:06:58;12.30;99.90
32536;DHT22;18974;50.838;4.636;2024-01-30T13:09:24;12.40;99.90
32536;DHT22;18974;50.838;4.636;2024-01-30T13:11:50;12.30;99.90
32536;DHT22;18974;50.838;4.636;2024-01-30T13:14:17;12.60;99.90
32536;DHT22;18974;50.838;4.636;2024-01-30T13:16:43;12.80;99.90
32536;DHT22;18974;50.838;4.636;2024-01-30T13:19:09;12.80;99.90
32536;DHT22;18974;50.838;4.636;2024-01-30T13:21:34;13.20;99.90
32536;DHT22;18974;50.838;4.636;2024-01-30T13:24:00;13.30;99.90
32536;DHT22;18974;50.838;4.636;2024-01-30T13:26:26;13.40;99.90
32536;DHT22;18974;50.838;4.636;2024-01-30T13:28:51;13.40;99.90
32536;DHT22;18974;50.838;4.636;2024-01-30T13:31:17;13.60;99.90
32536;DHT22;18974;50.838;4.636;2024-01-30T13:33:44;13.30;99.90
32536;DHT22;18974;50.838;4.636;2024-01-30T13:36:10;13.30;99.90
32536;DHT22;18974;50.838;4.636;2024-01-30T13:38:36;13.10;99.90
32536;DHT22;18974;50.838;4.636;2024-01-30T13:41:02;13.10;99.90
32536;DHT22;18974;50.838;4.636;2024-01-30T13:43:28;12.80;99.90
32536;DHT22;18974;50.838;4.636;2024-01-30T13:45:54;12.70;99.90
32536;DHT22;18974;50.838;4.636;2024-01-30T13:48:20;12.70;99.90
32536;DHT22;18974;50.838;4.636;2024-01-30T13:50:46;12.70;99.90
32536;DHT22;18974;50.838;4.636;2024-01-30T13:53:12;12.60;99.90
32536;DHT22;18974;50.838;4.636;2024-01-30T13:55:37;12.50;99.90
32536;DHT22;18974;50.838;4.636;2024-01-30T13:58:05;12.40;99.90
32536;DHT22;18974;50.838;4.636;2024-01-30T14:00:31;12.40;99.90
32536;DHT22;18974;50.838;4.636;2024-01-30T14:02:57;12.40;99.90
32536;DHT22;18974;50.838;4.636;2024-01-30T14:05:24;12.30;99.90
32536;DHT22;18974;50.838;4.636;2024-01-30T14:07:51;12.30;99.90
32536;DHT22;18974;50.838;4.636;2024-01-30T14:10:17;12.30;99.90
32536;DHT22;18974;50.838;4.636;2024-01-30T14:12:43;12.20;99.90
32536;DHT22;18974;50.838;4.636;2024-01-30T14:15:10;12.20;99.90
32536;DHT22;18974;50.838;4.636;2024-01-30T14:17:36;12.30;99.90
32536;DHT22;18974;50.838;4.636;2024-01-30T14:20:06;12.40;99.90
32536;DHT22;18974;50.838;4.636;2024-01-30T14:22:33;12.50;99.90
32536;DHT22;18974;50.838;4.636;2024-01-30T14:25:03;12.30;99.90
32536;DHT22;18974;50.838;4.636;2024-01-30T14:27:29;12.20;99.90
32536;DHT22;18974;50.838;4.636;2024-01-30T14:29:56;12.20;99.90
32536;DHT22;18974;50.838;4.636;2024-01-30T14:32:22;12.10;99.90
32536;DHT22;18974;50.838;4.636;2024-01-30T14:34:49;12.10;99.90
32536;DHT22;18974;50.838;4.636;2024-01-30T14:37:15;12.00;99.90
32536;DHT22;18974;50.838;4.636;2024-01-30T14:39:40;12.10;99.90
32536;DHT22;18974;50.838;4.636;2024-01-30T14:42:07;12.10;99.90
32536;DHT22;18974;50.838;4.636;2024-01-30T14:44:32;12.20;99.90
32536;DHT22;18974;50.838;4.636;2024-01-30T14:46:59;12.20;99.90
32536;DHT22;18974;50.838;4.636;2024-01-30T14:49:25;12.10;99.90
32536;DHT22;18974;50.838;4.636;2024-01-30T14:51:51;12.00;99.90
32536;DHT22;18974;50.838;4.636;2024-01-30T14:54:17;12.10;99.90
32536;DHT22;18974;50.838;4.636;2024-01-30T14:56:44;12.10;99.90
32536;DHT22;18974;50.838;4.636;2024-01-30T14:59:10;12.10;99.90
32536;DHT22;18974;50.838;4.636;2024-01-30T15:01:35;11.90;99.90
32536;DHT22;18974;50.838;4.636;2024-01-30T15:04:01;11.90;99.90
32536;DHT22;18974;50.838;4.636;2024-01-30T15:06:28;12.00;99.90
32536;DHT22;18974;50.838;4.636;2024-01-30T15:08:53;12.00;99.90
32536;DHT22;18974;50.838;4.636;2024-01-30T15:11:19;12.10;99.90
32536;DHT22;18974;50.838;4.636;2024-01-30T15:13:45;12.10;99.90
32536;DHT22;18974;50.838;4.636;2024-01-30T15:16:11;12.10;99.90
32536;DHT22;18974;50.838;4.636;2024-01-30T15:18:37;12.00;99.90
32536;DHT22;18974;50.838;4.636;2024-01-30T15:21:03;12.10;99.90
32536;DHT22;18974;50.838;4.636;2024-01-30T15:23:28;12.00;99.90
32536;DHT22;18974;50.838;4.636;2024-01-30T15:25:54;12.20;99.90
32536;DHT22;18974;50.838;4.636;2024-01-30T15:28:33;12.20;99.90
32536;DHT22;18974;50.838;4.636;2024-01-30T15:31:00;12.10;99.90
32536;DHT22;18974;50.838;4.636;2024-01-30T15:33:25;12.00;99.90